Time;durP1;ratioP1;P1;durP2;ratioP2;P2;SDS_P1;SDS_P2;PMS_P1;PMS_P2;Temp;Humidity;BMP_temperature;BMP_pressure;BME280_temperature;BME280_humidity;BME280_pressure;Samples;Min_cycle;Max_cycle;Signal;HPM_P1;HPM_P2
2023/06/29 00:04:27;;;;;;;5.12;2.60;;;;;;;19.82;58.05;99225.78;6997409;40;20330;31
2023/06/29 00:10:02;;;;;;;4.12;2.65;;;;;;;19.98;57.38;99227.94;7135876;40;21234;31
2023/06/29 00:15:23;;;;;;;5.26;2.24;;;;;;;19.77;57.40;99223.72;7124381;40;21383;31
2023/06/29 00:21:06;;;;;;;4.15;2.53;;;;;;;19.59;58.45;99223.69;7229288;40;20243;31
2023/06/29 00:26:41;;;;;;;4.28;2.55;;;;;;;19.48;57.52;99218.94;7177725;40;21185;31
2023/06/29 00:32:01;;;;;;;5.18;3.10;;;;;;;19.31;58.06;99215.87;7209607;40;21040;31
2023/06/29 00:37:39;;;;;;;3.83;2.42;;;;;;;19.33;58.68;99200.94;7234345;40;21181;31
2023/06/29 00:42:59;;;;;;;3.63;2.50;;;;;;;19.30;59.38;99195.09;7177102;40;21043;31
2023/06/29 00:48:34;;;;;;;4.90;2.90;;;;;;;19.08;60.23;99194.63;7216559;40;21399;31
2023/06/29 00:54:11;;;;;;;3.37;2.40;;;;;;;18.82;61.64;99192.87;7235149;40;21095;31
2023/06/29 00:59:31;;;;;;;3.38;2.36;;;;;;;18.76;60.14;99191.06;7182247;40;20273;31
2023/06/29 01:10:12;;;;;;;4.83;2.50;;;;;;;18.59;61.76;99178.13;7236559;40;21387;31
2023/06/29 01:15:47;;;;;;;3.33;2.53;;;;;;;18.50;62.46;99169.34;7267219;39;20253;31
2023/06/29 01:21:22;;;;;;;5.07;2.40;;;;;;;18.43;62.09;99161.16;7260175;39;21258;31
2023/06/29 01:26:59;;;;;;;4.20;2.37;;;;;;;18.38;62.80;99171.09;7275528;39;21077;31
2023/06/29 01:32:20;;;;;;;4.10;2.60;;;;;;;18.22;62.85;99172.41;7216048;40;20241;31
2023/06/29 01:37:56;;;;;;;3.47;2.37;;;;;;;18.21;63.27;99167.97;7265693;39;21021;31
2023/06/29 01:43:33;;;;;;;4.00;2.40;;;;;;;18.18;63.53;99162.13;7238544;40;21079;31
2023/06/29 01:49:09;;;;;;;6.20;2.77;;;;;;;18.27;63.26;99166.28;7252794;40;21216;31
2023/06/29 01:54:45;;;;;;;4.50;2.57;;;;;;;18.43;61.57;99157.59;7206805;40;21252;31
2023/06/29 02:06:21;;;;;;;4.00;2.63;;;;;;;18.25;63.08;99157.50;7192640;40;20270;31
2023/06/29 02:11:57;;;;;;;3.77;2.70;;;;;;;18.37;62.54;99163.94;7218746;40;21134;31
2023/06/29 02:17:33;;;;;;;3.13;2.30;;;;;;;18.42;62.14;99159.50;7238542;40;21008;31
2023/06/29 02:23:09;;;;;;;6.20;2.50;;;;;;;18.39;62.73;99150.91;7235217;40;20261;31
2023/06/29 02:28:29;;;;;;;6.94;2.70;;;;;;;18.34;62.43;99148.00;7215718;40;21229;31
2023/06/29 02:34:04;;;;;;;4.50;2.60;;;;;;;18.25;63.57;99146.59;7252788;40;20306;31
2023/06/29 02:39:41;;;;;;;5.27;2.80;;;;;;;18.11;64.11;99144.97;7237553;40;20383;31
2023/06/29 02:45:00;;;;;;;4.17;2.57;;;;;;;17.91;63.83;99145.03;7200694;40;21043;31
2023/06/29 02:50:21;;;;;;;3.70;2.60;;;;;;;17.79;63.83;99142.13;7203263;40;20267;31
2023/06/29 02:55:58;;;;;;;3.47;2.67;;;;;;;17.74;65.18;99146.53;7262552;40;21273;31
2023/06/29 03:01:34;;;;;;;5.00;2.50;;;;;;;17.70;64.98;99135.25;7208722;40;21119;31
2023/06/29 03:06:56;;;;;;;3.53;2.80;;;;;;;17.62;64.90;99140.09;7193151;40;21109;31
2023/06/29 03:12:31;;;;;;;5.77;2.87;;;;;;;17.61;65.64;99136.50;7198259;40;20365;31
2023/06/29 03:18:07;;;;;;;5.07;2.70;;;;;;;17.61;66.38;99136.50;7218850;40;21125;31
2023/06/29 03:23:29;;;;;;;2.87;2.40;;;;;;;17.75;65.36;99132.72;7218326;40;20998;31
2023/06/29 03:29:04;;;;;;;3.00;2.55;;;;;;;17.92;65.63;99130.34;7222413;40;21378;31
2023/06/29 03:34:41;;;;;;;4.13;2.60;;;;;;;18.11;63.94;99126.72;7217512;40;21213;31
2023/06/29 03:40:16;;;;;;;4.73;2.73;;;;;;;18.13;64.63;99124.59;7235750;40;20280;31
2023/06/29 03:45:51;;;;;;;3.97;2.60;;;;;;;18.11;63.80;99121.25;7239007;40;21146;31
2023/06/29 03:51:27;;;;;;;7.60;3.20;;;;;;;18.22;63.77;99112.38;7210199;40;21093;31
2023/06/29 03:56:49;;;;;;;3.93;2.87;;;;;;;18.18;63.97;99115.75;7236545;40;21094;31
2023/06/29 04:02:24;;;;;;;3.40;2.37;;;;;;;18.22;63.88;99115.09;7241122;39;20335;31
2023/06/29 04:08:02;;;;;;;4.50;2.70;;;;;;;18.53;62.34;99113.47;7234688;40;21113;31
2023/06/29 04:13:36;;;;;;;3.27;2.43;;;;;;;18.63;61.68;99106.50;7193673;40;20994;31
2023/06/29 04:19:13;;;;;;;4.40;2.50;;;;;;;18.67;62.40;99105.00;7169684;40;21147;31
2023/06/29 04:24:35;;;;;;;4.20;2.80;;;;;;;18.72;62.88;99107.91;7188848;40;21111;31
2023/06/29 04:29:55;;;;;;;2.95;2.65;;;;;;;18.68;63.74;99105.84;7215948;40;20299;31
2023/06/29 04:35:31;;;;;;;5.13;2.70;;;;;;;18.66;63.72;99102.47;7224395;40;21251;31
2023/06/29 04:41:07;;;;;;;3.13;2.60;;;;;;;18.74;63.70;99100.31;7204878;40;21161;31
2023/06/29 04:46:42;;;;;;;5.75;2.40;;;;;;;18.85;62.69;99096.88;7203076;40;20254;31
2023/06/29 04:52:20;;;;;;;3.00;2.40;;;;;;;18.92;63.19;99113.19;7212992;40;21287;31
2023/06/29 04:57:41;;;;;;;4.83;2.57;;;;;;;19.05;62.88;99113.09;7234154;40;21113;31
2023/06/29 05:03:01;;;;;;;5.10;2.50;;;;;;;19.17;62.27;99111.31;7216687;40;20324;31
2023/06/29 05:08:37;;;;;;;4.45;2.75;;;;;;;19.28;62.21;99104.28;7266244;40;20289;31
2023/06/29 05:14:12;;;;;;;5.35;2.60;;;;;;;19.56;61.42;99098.34;7222178;40;20397;31
2023/06/29 05:19:34;;;;;;;6.77;3.13;;;;;;;19.82;61.23;99099.94;7188464;40;20455;31
2023/06/29 05:25:10;;;;;;;4.40;2.80;;;;;;;19.99;61.42;99088.16;7174542;40;21245;31
2023/06/29 05:30:31;;;;;;;4.37;2.57;;;;;;;20.22;60.05;99093.75;7253918;40;21121;31
2023/06/29 05:35:51;;;;;;;4.53;2.60;;;;;;;20.46;60.03;99083.75;7242014;40;20372;31
2023/06/29 05:41:26;;;;;;;6.85;2.80;;;;;;;20.59;58.13;99083.53;7258262;40;20256;31
2023/06/29 05:47:01;;;;;;;5.40;2.70;;;;;;;20.88;58.88;99086.47;7265627;40;21399;31
2023/06/29 05:52:37;;;;;;;5.75;3.00;;;;;;;21.06;58.11;99087.19;7215898;40;20506;31
2023/06/29 05:58:14;;;;;;;4.00;2.50;;;;;;;21.16;56.93;99083.91;7184651;40;21149;31
2023/06/29 06:03:50;;;;;;;8.23;2.70;;;;;;;21.38;56.00;99081.41;7226974;40;20996;31
2023/06/29 06:09:10;;;;;;;5.20;3.00;;;;;;;21.60;55.41;99082.47;7216949;40;20297;31
2023/06/29 06:14:46;;;;;;;4.80;3.05;;;;;;;21.62;54.90;99077.59;7259899;40;21485;31
2023/06/29 06:20:23;;;;;;;6.30;3.17;;;;;;;21.73;55.07;99076.72;7211863;40;20979;31
2023/06/29 06:25:59;;;;;;;5.22;2.85;;;;;;;21.80;54.93;99076.59;7186968;40;21177;31
2023/06/29 06:31:33;;;;;;;4.50;2.80;;;;;;;21.85;55.35;99071.22;7027867;40;20245;31
2023/06/29 06:36:54;;;;;;;6.00;2.87;;;;;;;21.89;54.89;99069.66;7225563;40;21183;31
2023/06/29 06:42:14;;;;;;;4.53;2.72;;;;;;;22.03;55.46;99068.31;7242026;40;21162;31
2023/06/29 06:47:54;;;;;;;4.28;2.62;;;;;;;22.21;54.77;99062.63;7291387;39;21169;31
2023/06/29 06:53:14;;;;;;;5.68;2.62;;;;;;;22.40;53.75;99063.28;7282189;39;21124;31
2023/06/29 07:03:55;;;;;;;9.00;3.40;;;;;;;22.54;53.75;99063.81;7318985;39;20629;31
2023/06/29 07:09:31;;;;;;;7.53;2.62;;;;;;;22.65;52.90;99060.16;7213613;40;21077;31
2023/06/29 07:14:51;;;;;;;5.72;3.10;;;;;;;22.73;52.79;99057.84;7241885;40;21100;31
2023/06/29 07:20:28;;;;;;;6.30;2.85;;;;;;;22.71;52.66;99054.53;7235246;40;21053;31
2023/06/29 07:26:04;;;;;;;8.98;2.75;;;;;;;22.75;52.81;99060.38;7224384;40;21171;31
2023/06/29 07:31:39;;;;;;;7.97;3.00;;;;;;;22.84;52.66;99059.72;7226937;40;21193;31
2023/06/29 07:37:13;;;;;;;5.90;2.65;;;;;;;22.97;52.88;99058.53;7196669;40;20273;31
2023/06/29 07:42:33;;;;;;;6.10;2.80;;;;;;;23.02;52.55;99057.78;7200457;40;21039;31
2023/06/29 07:47:53;;;;;;;5.78;3.08;;;;;;;23.12;52.64;99063.47;7231478;40;21160;31
2023/06/29 07:53:29;;;;;;;5.25;2.60;;;;;;;23.25;51.95;99063.97;7242383;40;21100;31
2023/06/29 07:59:04;;;;;;;4.13;2.57;;;;;;;23.40;51.49;99063.34;7264112;40;20353;31
2023/06/29 08:04:24;;;;;;;5.95;2.70;;;;;;;23.31;51.69;99062.94;7257407;39;21146;31
2023/06/29 08:10:00;;;;;;;5.90;2.60;;;;;;;23.41;51.88;99059.50;7276616;40;20268;31
2023/06/29 08:15:21;;;;;;;4.63;2.63;;;;;;;23.94;48.94;99058.88;7235334;40;21229;31
2023/06/29 08:20:42;;;;;;;7.50;2.80;;;;;;;24.27;48.77;99048.81;7235153;40;21361;31
2023/06/29 08:26:20;;;;;;;2.90;2.40;;;;;;;24.35;48.92;99038.19;7246185;40;21076;31
2023/06/29 08:31:40;;;;;;;8.20;2.90;;;;;;;24.42;49.54;99038.78;7197792;40;21357;31
2023/06/29 08:37:00;;;;;;;7.53;2.78;;;;;;;24.57;47.20;99043.63;7244355;40;20446;31
2023/06/29 08:42:37;;;;;;;4.60;2.90;;;;;;;24.76;48.93;99036.62;7258380;40;21193;31
2023/06/29 08:48:11;;;;;;;4.60;2.70;;;;;;;24.95;47.73;99034.34;7209734;40;21153;31
2023/06/29 08:53:46;;;;;;;6.78;2.37;;;;;;;25.09;47.05;99033.63;7215117;40;20240;31
2023/06/29 08:59:22;;;;;;;4.25;2.50;;;;;;;25.07;46.46;99034.97;7172830;40;20292;31
2023/06/29 09:04:45;;;;;;;9.60;2.60;;;;;;;25.13;46.66;99040.28;7166371;40;21221;31
2023/06/29 09:10:22;;;;;;;4.70;2.37;;;;;;;25.22;46.79;99031.50;7205057;40;21193;31
2023/06/29 09:16:00;;;;;;;5.03;2.17;;;;;;;25.33;46.01;99034.06;7176320;40;20313;31
2023/06/29 09:21:33;;;;;;;4.53;2.25;;;;;;;25.59;45.82;99018.50;7132355;40;21182;31
2023/06/29 09:27:08;;;;;;;5.70;2.40;;;;;;;25.68;45.44;99018.81;7180178;40;21092;31
2023/06/29 09:32:42;;;;;;;4.60;2.60;;;;;;;25.65;44.72;99011.09;7153783;40;21308;31
2023/06/29 09:38:18;;;;;;;3.60;2.30;;;;;;;25.70;44.04;99022.16;7162949;40;21023;31
2023/06/29 09:43:39;;;;;;;3.33;2.20;;;;;;;25.83;44.52;99018.91;7170660;40;21380;31
2023/06/29 09:49:14;;;;;;;6.05;2.55;;;;;;;25.60;43.73;99025.69;7166597;40;20298;31
2023/06/29 09:54:50;;;;;;;4.78;2.50;;;;;;;25.60;45.32;99016.56;7198270;40;21252;31
2023/06/29 10:00:23;;;;;;;5.22;2.58;;;;;;;25.62;44.02;99020.75;7223452;40;20245;31
2023/06/29 10:05:57;;;;;;;3.80;2.70;;;;;;;25.65;44.72;99016.59;7242021;40;21187;31
2023/06/29 10:11:32;;;;;;;4.30;2.20;;;;;;;25.61;44.47;99016.31;7252742;40;21430;31
2023/06/29 10:17:07;;;;;;;5.80;2.50;;;;;;;25.56;44.02;99016.28;7252913;40;20447;31
2023/06/29 10:22:44;;;;;;;3.63;2.30;;;;;;;25.65;45.00;99011.09;7208986;40;21124;31
2023/06/29 10:28:19;;;;;;;7.00;2.40;;;;;;;25.61;44.85;99004.44;7160086;40;21181;31
2023/06/29 10:33:57;;;;;;;6.07;2.90;;;;;;;25.49;43.84;99005.44;7128168;40;21033;31
2023/06/29 10:39:52;;;;;;;6.68;2.35;;;;;;;25.54;44.69;99001.91;7157144;40;20387;31
2023/06/29 10:45:43;;;;;;;7.75;2.30;;;;;;;25.55;44.66;99003.56;7157350;40;20246;31
2023/06/29 10:51:20;;;;;;;17.50;3.10;;;;;;;25.53;44.32;98995.59;7186406;40;21169;31
2023/06/29 10:56:57;;;;;;;9.45;2.55;;;;;;;25.51;44.87;98994.13;7150587;40;21195;31
2023/06/29 11:02:31;;;;;;;7.50;2.80;;;;;;;25.44;45.31;98991.62;7164962;40;21249;31
2023/06/29 11:08:07;;;;;;;7.03;2.33;;;;;;;25.45;44.31;98998.00;7216657;40;21252;31
2023/06/29 11:13:43;;;;;;;6.20;2.50;;;;;;;25.61;44.70;99001.69;7216197;40;21071;31
2023/06/29 11:19:18;;;;;;;4.10;2.60;;;;;;;25.70;43.61;98995.37;7225391;40;21091;31
2023/06/29 11:24:53;;;;;;;4.95;2.55;;;;;;;25.90;43.50;98984.41;7207451;40;21148;31
2023/06/29 11:30:29;;;;;;;6.23;2.40;;;;;;;26.08;43.65;98985.00;7205136;40;20254;31
2023/06/29 11:35:49;;;;;;;6.72;2.45;;;;;;;26.18;42.95;98985.03;7148442;40;20274;31
2023/06/29 11:41:25;;;;;;;3.85;2.50;;;;;;;26.21;43.18;98976.22;7186548;40;21189;31
2023/06/29 11:47:01;;;;;;;6.43;2.43;;;;;;;26.19;42.69;98981.16;7214915;40;20309;31
2023/06/29 11:52:36;;;;;;;2.80;2.20;;;;;;;26.38;42.41;98976.78;7197414;40;21195;31
2023/06/29 11:58:08;;;;;;;6.15;2.40;;;;;;;26.64;42.14;98970.16;7175560;40;21099;31
2023/06/29 12:03:44;;;;;;;3.00;2.10;;;;;;;26.85;41.58;98968.28;7155420;40;21102;31
2023/06/29 12:09:25;;;;;;;3.37;2.10;;;;;;;26.76;41.85;98969.91;7155725;40;21109;31
2023/06/29 12:14:45;;;;;;;9.05;2.70;;;;;;;26.77;42.25;98963.25;7195954;40;21084;31
2023/06/29 12:20:25;;;;;;;4.20;2.15;;;;;;;26.83;41.46;98959.38;7175390;40;20255;31
2023/06/29 12:26:00;;;;;;;3.00;2.10;;;;;;;27.08;41.57;98955.78;7191221;40;21143;31
2023/06/29 12:31:40;;;;;;;4.65;2.30;;;;;;;27.01;41.09;98939.47;7218824;40;21232;31
2023/06/29 12:42:52;;;;;;;4.80;2.47;;;;;;;27.72;40.26;98929.00;7157530;40;20262;31
2023/06/29 12:48:13;;;;;;;4.50;2.60;;;;;;;28.24;40.22;98922.06;7219705;40;20261;31
2023/06/29 12:53:47;;;;;;;3.33;2.83;;;;;;;28.52;38.68;98926.03;6977737;40;20238;31
2023/06/29 12:59:07;;;;;;;4.30;2.70;;;;;;;28.21;39.24;98908.78;7170784;40;21305;31
2023/06/29 13:04:28;;;;;;;5.80;3.40;;;;;;;28.33;40.22;98913.97;7165069;40;21115;31
2023/06/29 13:10:03;;;;;;;4.75;3.30;;;;;;;28.21;39.80;98908.78;7160740;40;21274;31
2023/06/29 13:15:22;;;;;;;3.65;2.92;;;;;;;28.17;40.17;98914.06;7172377;40;21065;31
2023/06/29 13:20:43;;;;;;;4.03;3.40;;;;;;;28.08;40.84;98910.22;7261720;40;21098;31
2023/06/29 13:26:19;;;;;;;5.68;2.78;;;;;;;27.99;41.65;98900.88;7279895;39;21129;31
2023/06/29 13:31:55;;;;;;;4.37;3.40;;;;;;;28.14;41.21;98897.19;7303583;39;20372;31
2023/06/29 13:37:28;;;;;;;4.68;3.42;;;;;;;28.61;38.80;98891.78;7254446;40;21142;31
2023/06/29 13:43:03;;;;;;;5.12;3.92;;;;;;;28.64;38.63;98891.22;7220001;40;21141;31
2023/06/29 13:48:38;;;;;;;4.60;4.10;;;;;;;28.97;38.77;98872.03;7195459;40;21097;31
2023/06/29 13:54:13;;;;;;;4.93;3.90;;;;;;;29.01;39.70;98873.09;7194012;40;21020;31
2023/06/29 13:59:49;;;;;;;6.10;4.20;;;;;;;28.77;40.00;98883.38;7204241;40;21135;31
2023/06/29 14:05:10;;;;;;;7.60;4.50;;;;;;;28.78;39.61;98877.53;7262693;40;21092;31
2023/06/29 14:10:30;;;;;;;5.80;4.35;;;;;;;28.67;39.56;98868.44;7274963;40;21160;31
2023/06/29 14:16:07;;;;;;;5.37;4.20;;;;;;;28.61;40.61;98872.37;7247589;40;21089;31
2023/06/29 14:21:43;;;;;;;5.30;4.18;;;;;;;28.58;39.03;98858.28;7219064;40;21134;31
2023/06/29 14:27:04;;;;;;;5.60;4.17;;;;;;;28.55;40.63;98847.78;7225084;40;21016;31
2023/06/29 14:32:40;;;;;;;7.40;4.57;;;;;;;28.54;39.13;98846.94;7204834;40;21113;31
2023/06/29 14:38:15;;;;;;;6.50;4.32;;;;;;;28.52;40.97;98834.50;7207907;40;20292;31
2023/06/29 14:48:56;;;;;;;6.93;4.80;;;;;;;28.37;39.63;98840.16;7252776;40;20268;31
2023/06/29 14:54:37;;;;;;;5.32;4.35;;;;;;;28.38;41.16;98823.25;7231152;40;21213;31
2023/06/29 14:59:55;;;;;;;5.87;4.82;;;;;;;28.75;39.53;98814.28;7233747;40;21106;31
2023/06/29 15:05:33;;;;;;;5.50;4.53;;;;;;;29.00;39.07;98810.41;7208977;40;20272;31
2023/06/29 15:15:58;;;;;;;5.20;4.53;;;;;;;28.61;38.83;98803.03;7321978;39;21320;31
2023/06/29 15:26:38;;;;;;;9.10;5.53;;;;;;;28.64;40.15;98801.62;7319300;39;21314;31
2023/06/29 15:32:13;;;;;;;6.40;5.20;;;;;;;28.91;39.12;98798.31;7294406;39;21041;31
2023/06/29 15:37:48;;;;;;;8.52;4.88;;;;;;;29.00;38.47;98785.44;7258390;40;20273;31
2023/06/29 15:43:22;;;;;;;8.25;5.20;;;;;;;28.84;38.16;98790.31;7214258;40;21060;31
2023/06/29 15:48:44;;;;;;;5.95;4.70;;;;;;;28.78;39.61;98791.53;7213160;40;21175;31
2023/06/29 15:54:04;;;;;;;5.53;4.97;;;;;;;29.04;38.22;98778.16;7202908;40;21088;31
2023/06/29 15:59:42;;;;;;;5.85;5.22;;;;;;;29.21;39.57;98772.09;7218935;40;21141;31
2023/06/29 16:05:01;;;;;;;5.40;4.30;;;;;;;29.18;39.34;98769.94;7255349;40;20261;31
2023/06/29 16:10:22;;;;;;;7.05;4.15;;;;;;;28.83;39.12;98766.47;7239886;40;21075;31
2023/06/29 16:15:56;;;;;;;6.80;4.32;;;;;;;28.71;40.18;98762.47;7241641;40;20272;31
2023/06/29 16:21:31;;;;;;;6.70;4.30;;;;;;;28.36;40.43;98758.94;7302667;39;20269;31
2023/06/29 16:27:07;;;;;;;8.50;4.95;;;;;;;28.41;39.44;98756.09;7254256;40;21163;31
2023/06/29 16:32:44;;;;;;;5.70;4.20;;;;;;;28.32;40.27;98755.09;7211774;40;20334;31
2023/06/29 16:38:19;;;;;;;6.22;3.97;;;;;;;28.25;41.12;98754.62;7184497;40;20289;31
2023/06/29 16:49:11;;;;;;;10.73;4.47;;;;;;;28.00;42.02;98752.84;7171162;40;21102;31
2023/06/29 16:54:31;;;;;;;5.28;4.05;;;;;;;27.79;41.57;98756.94;7191251;40;21290;31
2023/06/29 16:59:51;;;;;;;6.07;4.07;;;;;;;27.72;41.94;98748.12;7243013;39;20256;31
2023/06/29 17:05:27;;;;;;;5.90;3.90;;;;;;;27.64;42.05;98751.53;7259767;39;20242;31
2023/06/29 17:11:03;;;;;;;7.70;3.60;;;;;;;27.62;42.58;98746.25;7234074;40;20235;31
2023/06/29 17:16:21;;;;;;;4.70;3.80;;;;;;;27.60;42.09;98753.22;7215992;40;20246;31
2023/06/29 17:21:58;;;;;;;9.25;3.90;;;;;;;27.52;43.43;98751.03;7249682;40;21135;31
2023/06/29 17:27:33;;;;;;;7.00;3.80;;;;;;;27.49;42.88;98760.75;7214927;40;20402;31
2023/06/29 17:33:09;;;;;;;9.00;3.80;;;;;;;27.42;42.79;98754.69;7165404;40;21171;31
2023/06/29 17:38:45;;;;;;;4.65;3.42;;;;;;;27.35;42.33;98762.47;7202584;40;20277;31
2023/06/29 17:49:28;;;;;;;9.95;3.90;;;;;;;27.30;43.20;98760.56;7273881;39;20263;31
2023/06/29 17:55:04;;;;;;;6.05;3.80;;;;;;;27.22;43.46;98757.56;7296448;40;21027;31
2023/06/29 18:00:40;;;;;;;8.60;3.58;;;;;;;27.15;43.69;98762.59;7261302;40;20435;31
2023/06/29 18:11:20;;;;;;;6.80;4.10;;;;;;;26.92;44.20;98764.09;7262006;39;21358;31
2023/06/29 18:16:55;;;;;;;7.10;3.60;;;;;;;26.84;44.09;98764.66;7257050;39;20412;31
2023/06/29 18:22:15;;;;;;;8.65;3.78;;;;;;;26.87;43.45;98780.69;7252949;40;20254;31
2023/06/29 18:27:51;;;;;;;10.60;4.30;;;;;;;26.80;44.37;98766.31;7300128;39;21117;31
2023/06/29 18:33:26;;;;;;;9.40;4.10;;;;;;;26.78;44.28;98779.59;7237337;40;21195;31
2023/06/29 18:38:46;;;;;;;6.30;3.60;;;;;;;26.70;44.70;98781.00;7190584;40;21139;31
2023/06/29 18:44:20;;;;;;;6.10;3.75;;;;;;;26.62;44.58;98783.53;7226313;40;21110;31
2023/06/29 18:49:56;;;;;;;6.68;3.70;;;;;;;26.52;44.49;98776.09;7212835;40;20245;31
2023/06/29 18:55:33;;;;;;;6.80;3.50;;;;;;;26.42;45.00;98779.69;7197269;40;20352;31
2023/06/29 19:01:16;;;;;;;5.43;3.58;;;;;;;26.32;45.21;98773.37;7284566;40;20282;31
2023/06/29 19:06:49;;;;;;;5.55;3.50;;;;;;;26.22;45.61;98773.37;7213443;40;21115;31
2023/06/29 19:12:24;;;;;;;6.05;4.03;;;;;;;26.10;46.40;98765.38;7198895;40;20246;31
2023/06/29 19:18:00;;;;;;;6.00;4.00;;;;;;;26.03;46.24;98768.38;7153246;40;21117;31
2023/06/29 19:23:35;;;;;;;6.50;4.07;;;;;;;25.92;47.51;98771.44;7123196;40;21088;31
2023/06/29 19:29:10;;;;;;;9.20;3.80;;;;;;;25.81;48.23;98778.88;7129192;40;20252;31
2023/06/29 19:34:46;;;;;;;14.30;4.80;;;;;;;25.60;48.94;98768.09;7146646;40;21076;31
2023/06/29 19:40:05;;;;;;;6.95;3.80;;;;;;;25.41;49.69;98778.81;7171409;40;21130;31
2023/06/29 19:45:41;;;;;;;12.32;3.72;;;;;;;25.28;50.10;98787.59;7214413;40;20254;31
2023/06/29 19:51:17;;;;;;;7.75;4.78;;;;;;;25.06;50.46;98779.53;7172489;40;20270;31
2023/06/29 19:56:35;;;;;;;7.57;3.93;;;;;;;24.98;49.94;98780.06;6999079;40;20308;31
2023/06/29 20:02:10;;;;;;;6.43;4.30;;;;;;;24.88;51.14;98786.38;7222511;40;21190;31
2023/06/29 20:07:43;;;;;;;7.05;4.28;;;;;;;24.74;51.63;98781.59;7215107;40;20249;31
2023/06/29 20:18:22;;;;;;;6.93;4.05;;;;;;;24.46;51.30;98791.09;7260898;39;20263;31
2023/06/29 20:29:03;;;;;;;6.90;4.25;;;;;;;24.36;51.03;98786.34;7274700;39;21258;31
2023/06/29 20:39:40;;;;;;;8.35;4.10;;;;;;;24.20;52.18;98788.16;7299391;39;21262;31
2023/06/29 20:45:16;;;;;;;8.57;4.47;;;;;;;24.16;52.22;98784.28;7263163;40;21229;31
2023/06/29 20:50:52;;;;;;;6.00;4.30;;;;;;;24.11;51.76;98786.97;7251672;40;21137;31
2023/06/29 20:56:12;;;;;;;6.50;3.90;;;;;;;24.10;52.35;98787.22;7235841;40;21041;31
2023/06/29 21:01:54;;;;;;;4.57;4.07;;;;;;;23.94;52.14;98778.03;7277975;40;20239;31
2023/06/29 21:12:33;;;;;;;7.20;3.80;;;;;;;23.91;52.41;98773.06;7249386;40;20299;31
2023/06/29 21:18:11;;;;;;;8.20;4.70;;;;;;;23.89;52.31;98757.88;7201187;40;21093;31
2023/06/29 21:23:32;;;;;;;5.50;4.00;;;;;;;23.82;52.49;98769.13;7229303;40;21426;31
2023/06/29 21:29:19;;;;;;;5.25;4.12;;;;;;;23.75;52.29;98769.31;7236701;40;21104;31
2023/06/29 21:34:56;;;;;;;5.78;4.20;;;;;;;23.59;53.60;98774.97;7224946;40;21129;31
2023/06/29 21:40:31;;;;;;;6.40;4.20;;;;;;;23.52;52.54;98779.84;7212690;40;20328;31
2023/06/29 21:45:51;;;;;;;8.02;3.87;;;;;;;23.48;53.85;98767.69;7195858;40;20232;31
2023/06/29 21:51:27;;;;;;;5.37;3.90;;;;;;;23.48;53.12;98760.25;7195831;40;21074;31
2023/06/29 21:57:03;;;;;;;5.85;4.18;;;;;;;23.35;54.83;98757.91;7206994;40;20296;31
2023/06/29 22:02:24;;;;;;;5.87;4.05;;;;;;;23.39;53.93;98763.75;7176542;40;21113;31
2023/06/29 22:07:58;;;;;;;7.20;4.37;;;;;;;23.13;54.77;98765.38;7219938;40;20249;31
2023/06/29 22:13:33;;;;;;;8.05;4.05;;;;;;;23.12;54.18;98759.06;7225451;40;20288;31
2023/06/29 22:19:09;;;;;;;6.45;4.10;;;;;;;23.12;54.98;98758.22;7183053;40;20278;31
2023/06/29 22:24:46;;;;;;;5.80;4.10;;;;;;;23.01;55.98;98745.44;7174325;40;20251;31
2023/06/29 22:30:23;;;;;;;8.32;4.50;;;;;;;22.98;55.61;98746.81;7202919;40;20422;31
2023/06/29 22:41:00;;;;;;;7.18;4.50;;;;;;;22.89;55.52;98734.59;7248538;40;20325;31
2023/06/29 22:46:33;;;;;;;4.82;3.75;;;;;;;22.76;55.84;98737.75;7241000;40;20253;31
2023/06/29 22:57:13;;;;;;;6.80;4.20;;;;;;;22.72;55.73;98725.59;7255242;40;21402;31
2023/06/29 23:07:44;;;;;;;5.70;4.07;;;;;;;22.68;56.23;98724.44;7273059;40;20386;31
2023/06/29 23:13:16;;;;;;;5.55;4.15;;;;;;;22.68;56.02;98718.94;7219474;40;20298;31
2023/06/29 23:18:36;;;;;;;4.60;3.90;;;;;;;22.66;55.26;98730.16;7275298;39;21228;31
2023/06/29 23:24:13;;;;;;;5.97;4.40;;;;;;;22.58;55.95;98716.06;7316765;39;20256;31
2023/06/29 23:29:48;;;;;;;6.20;4.50;;;;;;;22.58;56.18;98724.28;7265084;40;20253;31
2023/06/29 23:35:22;;;;;;;5.18;4.15;;;;;;;22.42;56.53;98715.84;7214807;40;21089;31
2023/06/29 23:41:02;;;;;;;5.07;4.23;;;;;;;22.29;57.07;98715.41;7183916;40;21353;31
2023/06/29 23:46:40;;;;;;;4.20;3.70;;;;;;;22.36;56.32;98705.91;7216771;40;21116;31
2023/06/29 23:52:15;;;;;;;5.07;4.37;;;;;;;22.03;57.26;98703.22;7240694;40;21374;31
2023/06/29 23:57:50;;;;;;;7.90;4.20;;;;;;;21.67;58.53;98707.31;7235501;40;21182;31
